sensor_id;sensor_type;location;lat;lon;timestamp;pressure;altitude;pressure_sealevel;temperature;humidity
78016;BME280;67223;51.102;5.882;2024-02-26T00:01:21;99361.50;;;6.93;100.00
78016;BME280;67223;51.102;5.882;2024-02-26T00:03:46;99359.56;;;6.95;100.00
78016;BME280;67223;51.102;5.882;2024-02-26T00:06:12;99353.81;;;6.90;100.00
78016;BME280;67223;51.102;5.882;2024-02-26T00:08:38;99352.00;;;6.90;100.00
78016;BME280;67223;51.102;5.882;2024-02-26T00:11:03;99348.81;;;6.87;100.00
78016;BME280;67223;51.102;5.882;2024-02-26T00:13:29;99348.94;;;6.85;100.00
78016;BME280;67223;51.102;5.882;2024-02-26T00:15:54;99346.69;;;6.81;100.00
78016;BME280;67223;51.102;5.882;2024-02-26T00:18:19;99348.66;;;6.88;100.00
78016;BME280;67223;51.102;5.882;2024-02-26T00:20:45;99351.88;;;6.92;100.00
78016;BME280;67223;51.102;5.882;2024-02-26T00:23:10;99343.50;;;6.87;100.00
78016;BME280;67223;51.102;5.882;2024-02-26T00:25:35;99333.44;;;6.90;100.00
78016;BME280;67223;51.102;5.882;2024-02-26T00:28:03;99335.91;;;6.73;100.00
78016;BME280;67223;51.102;5.882;2024-02-26T00:30:29;99327.97;;;6.82;100.00
78016;BME280;67223;51.102;5.882;2024-02-26T00:32:54;99330.91;;;6.79;100.00
78016;BME280;67223;51.102;5.882;2024-02-26T00:35:19;99329.22;;;6.78;100.00
78016;BME280;67223;51.102;5.882;2024-02-26T00:37:46;99321.44;;;6.86;100.00
78016;BME280;67223;51.102;5.882;2024-02-26T00:40:11;99312.75;;;6.75;100.00
78016;BME280;67223;51.102;5.882;2024-02-26T00:42:36;99314.44;;;6.76;100.00
78016;BME280;67223;51.102;5.882;2024-02-26T00:45:02;99302.00;;;6.76;100.00
78016;BME280;67223;51.102;5.882;2024-02-26T00:47:28;99295.88;;;6.76;100.00
78016;BME280;67223;51.102;5.882;2024-02-26T00:49:53;99292.91;;;6.69;100.00
78016;BME280;67223;51.102;5.882;2024-02-26T00:52:19;99290.56;;;6.66;100.00
78016;BME280;67223;51.102;5.882;2024-02-26T00:54:44;99293.75;;;6.70;100.00
78016;BME280;67223;51.102;5.882;2024-02-26T00:57:09;99286.50;;;6.72;100.00
78016;BME280;67223;51.102;5.882;2024-02-26T00:59:35;99280.91;;;6.65;100.00
78016;BME280;67223;51.102;5.882;2024-02-26T01:02:00;99270.84;;;6.69;100.00
78016;BME280;67223;51.102;5.882;2024-02-26T01:04:27;99276.75;;;6.72;100.00
78016;BME280;67223;51.102;5.882;2024-02-26T01:06:52;99271.44;;;6.72;100.00
78016;BME280;67223;51.102;5.882;2024-02-26T01:09:18;99258.44;;;6.69;100.00
78016;BME280;67223;51.102;5.882;2024-02-26T01:11:45;99250.16;;;6.53;100.00
78016;BME280;67223;51.102;5.882;2024-02-26T01:14:10;99241.66;;;6.59;100.00
78016;BME280;67223;51.102;5.882;2024-02-26T01:16:35;99237.91;;;6.52;100.00
78016;BME280;67223;51.102;5.882;2024-02-26T01:19:01;99234.25;;;6.43;100.00
78016;BME280;67223;51.102;5.882;2024-02-26T01:21:26;99227.97;;;6.35;100.00
78016;BME280;67223;51.102;5.882;2024-02-26T01:23:54;99216.13;;;6.48;100.00
78016;BME280;67223;51.102;5.882;2024-02-26T01:26:19;99204.25;;;6.43;100.00
78016;BME280;67223;51.102;5.882;2024-02-26T01:28:46;99192.97;;;6.41;100.00
78016;BME280;67223;51.102;5.882;2024-02-26T01:31:11;99178.16;;;6.58;100.00
78016;BME280;67223;51.102;5.882;2024-02-26T01:33:37;99167.97;;;6.53;100.00
78016;BME280;67223;51.102;5.882;2024-02-26T01:36:02;99166.16;;;6.44;100.00
78016;BME280;67223;51.102;5.882;2024-02-26T01:38:28;99152.22;;;6.52;100.00
78016;BME280;67223;51.102;5.882;2024-02-26T01:40:53;99149.56;;;6.42;100.00
78016;BME280;67223;51.102;5.882;2024-02-26T01:43:18;99148.44;;;6.35;100.00
78016;BME280;67223;51.102;5.882;2024-02-26T01:45:44;99141.75;;;6.31;100.00
78016;BME280;67223;51.102;5.882;2024-02-26T01:48:09;99134.75;;;6.30;100.00
78016;BME280;67223;51.102;5.882;2024-02-26T01:50:36;99132.53;;;6.35;100.00
78016;BME280;67223;51.102;5.882;2024-02-26T01:53:03;99124.88;;;6.22;100.00
78016;BME280;67223;51.102;5.882;2024-02-26T01:55:29;99119.97;;;6.37;100.00
78016;BME280;67223;51.102;5.882;2024-02-26T01:57:55;99123.72;;;6.34;100.00
78016;BME280;67223;51.102;5.882;2024-02-26T02:00:21;99116.19;;;6.39;100.00
78016;BME280;67223;51.102;5.882;2024-02-26T02:02:47;99111.03;;;6.38;100.00
78016;BME280;67223;51.102;5.882;2024-02-26T02:05:15;99108.38;;;6.19;100.00
78016;BME280;67223;51.102;5.882;2024-02-26T02:07:41;99098.50;;;6.30;100.00
78016;BME280;67223;51.102;5.882;2024-02-26T02:10:07;99084.09;;;6.33;100.00
78016;BME280;67223;51.102;5.882;2024-02-26T02:12:33;99088.72;;;6.31;100.00
78016;BME280;67223;51.102;5.882;2024-02-26T02:15:00;99087.59;;;6.33;100.00
78016;BME280;67223;51.102;5.882;2024-02-26T02:17:26;99076.84;;;6.35;100.00
78016;BME280;67223;51.102;5.882;2024-02-26T02:19:52;99072.84;;;6.21;100.00
78016;BME280;67223;51.102;5.882;2024-02-26T02:22:17;99065.13;;;6.28;100.00
78016;BME280;67223;51.102;5.882;2024-02-26T02:24:43;99059.03;;;6.27;100.00
78016;BME280;67223;51.102;5.882;2024-02-26T02:27:08;99052.59;;;6.30;100.00
78016;BME280;67223;51.102;5.882;2024-02-26T02:29:34;99050.66;;;6.32;100.00
78016;BME280;67223;51.102;5.882;2024-02-26T02:32:01;99049.38;;;6.26;100.00
78016;BME280;67223;51.102;5.882;2024-02-26T02:34:27;99053.16;;;6.24;100.00
78016;BME280;67223;51.102;5.882;2024-02-26T02:36:54;99047.16;;;6.22;100.00
78016;BME280;67223;51.102;5.882;2024-02-26T02:39:20;99054.97;;;6.23;100.00
78016;BME280;67223;51.102;5.882;2024-02-26T02:41:46;99049.41;;;6.17;100.00
78016;BME280;67223;51.102;5.882;2024-02-26T02:44:11;99030.25;;;6.23;100.00
78016;BME280;67223;51.102;5.882;2024-02-26T02:46:37;99032.91;;;6.13;100.00
78016;BME280;67223;51.102;5.882;2024-02-26T02:49:02;99027.47;;;6.24;100.00
78016;BME280;67223;51.102;5.882;2024-02-26T02:51:27;99027.22;;;6.27;100.00
78016;BME280;67223;51.102;5.882;2024-02-26T02:53:53;99022.72;;;6.18;100.00
78016;BME280;67223;51.102;5.882;2024-02-26T02:56:19;99024.53;;;6.18;100.00
78016;BME280;67223;51.102;5.882;2024-02-26T02:58:44;99020.78;;;6.20;100.00
78016;BME280;67223;51.102;5.882;2024-02-26T03:03:45;99019.25;;;6.27;100.00
78016;BME280;67223;51.102;5.882;2024-02-26T03:06:10;99020.38;;;6.25;100.00
78016;BME280;67223;51.102;5.882;2024-02-26T03:08:36;99011.00;;;6.30;100.00
78016;BME280;67223;51.102;5.882;2024-02-26T03:11:06;99019.25;;;6.27;100.00
78016;BME280;67223;51.102;5.882;2024-02-26T03:13:32;99004.88;;;6.30;100.00
78016;BME280;67223;51.102;5.882;2024-02-26T03:15:57;99009.06;;;6.23;100.00
78016;BME280;67223;51.102;5.882;2024-02-26T03:18:23;99010.16;;;6.30;100.00
78016;BME280;67223;51.102;5.882;2024-02-26T03:20:49;99001.13;;;6.32;100.00
78016;BME280;67223;51.102;5.882;2024-02-26T03:23:14;99005.88;;;6.19;100.00
78016;BME280;67223;51.102;5.882;2024-02-26T03:25:42;99003.75;;;6.23;100.00
78016;BME280;67223;51.102;5.882;2024-02-26T03:28:08;99001.53;;;6.18;100.00
78016;BME280;67223;51.102;5.882;2024-02-26T03:30:33;98992.75;;;6.18;100.00
78016;BME280;67223;51.102;5.882;2024-02-26T03:33:00;98991.09;;;6.17;100.00
78016;BME280;67223;51.102;5.882;2024-02-26T03:35:25;98993.31;;;6.21;100.00
78016;BME280;67223;51.102;5.882;2024-02-26T03:37:50;98987.03;;;6.22;100.00
78016;BME280;67223;51.102;5.882;2024-02-26T03:40:17;98993.44;;;6.29;100.00
78016;BME280;67223;51.102;5.882;2024-02-26T03:42:44;98983.53;;;6.31;100.00
78016;BME280;67223;51.102;5.882;2024-02-26T03:45:10;98985.38;;;6.21;100.00
78016;BME280;67223;51.102;5.882;2024-02-26T03:47:37;98980.91;;;6.22;100.00
78016;BME280;67223;51.102;5.882;2024-02-26T03:50:03;98984.69;;;6.10;100.00
78016;BME280;67223;51.102;5.882;2024-02-26T03:52:30;98981.47;;;6.16;100.00
78016;BME280;67223;51.102;5.882;2024-02-26T03:54:55;98987.31;;;6.10;100.00
78016;BME280;67223;51.102;5.882;2024-02-26T03:57:21;98979.50;;;6.18;100.00
78016;BME280;67223;51.102;5.882;2024-02-26T03:59:46;98972.25;;;6.20;100.00
78016;BME280;67223;51.102;5.882;2024-02-26T04:02:11;98971.84;;;6.05;100.00
78016;BME280;67223;51.102;5.882;2024-02-26T04:04:37;98972.28;;;6.00;100.00
78016;BME280;67223;51.102;5.882;2024-02-26T04:07:02;98970.88;;;6.16;100.00
78016;BME280;67223;51.102;5.882;2024-02-26T04:09:28;98968.09;;;6.08;100.00
78016;BME280;67223;51.102;5.882;2024-02-26T04:11:53;98972.97;;;6.12;100.00
78016;BME280;67223;51.102;5.882;2024-02-26T04:14:18;98965.59;;;6.06;100.00
78016;BME280;67223;51.102;5.882;2024-02-26T04:16:44;98969.47;;;6.12;100.00
78016;BME280;67223;51.102;5.882;2024-02-26T04:19:09;98966.16;;;6.00;100.00
78016;BME280;67223;51.102;5.882;2024-02-26T04:21:34;98965.72;;;6.04;100.00
78016;BME280;67223;51.102;5.882;2024-02-26T04:24:00;98970.03;;;6.05;100.00
78016;BME280;67223;51.102;5.882;2024-02-26T04:26:27;98971.28;;;6.11;100.00
78016;BME280;67223;51.102;5.882;2024-02-26T04:28:54;98974.63;;;6.13;100.00
78016;BME280;67223;51.102;5.882;2024-02-26T04:31:19;98968.09;;;6.17;100.00
78016;BME280;67223;51.102;5.882;2024-02-26T04:33:44;98969.47;;;6.12;100.00
78016;BME280;67223;51.102;5.882;2024-02-26T04:36:14;98964.28;;;6.20;100.00
78016;BME280;67223;51.102;5.882;2024-02-26T04:38:41;98972.13;;;6.12;100.00
78016;BME280;67223;51.102;5.882;2024-02-26T04:41:06;98972.28;;;6.00;100.00
78016;BME280;67223;51.102;5.882;2024-02-26T04:43:31;98970.47;;;6.11;100.00
78016;BME280;67223;51.102;5.882;2024-02-26T04:45:57;98971.44;;;6.10;100.00
78016;BME280;67223;51.102;5.882;2024-02-26T04:48:22;98971.16;;;6.13;100.00
78016;BME280;67223;51.102;5.882;2024-02-26T04:50:48;98978.94;;;6.14;100.00
78016;BME280;67223;51.102;5.882;2024-02-26T04:53:13;98969.31;;;6.13;100.00
78016;BME280;67223;51.102;5.882;2024-02-26T04:55:39;98973.97;;;6.01;100.00
78016;BME280;67223;51.102;5.882;2024-02-26T04:58:04;98974.81;;;5.92;100.00
78016;BME280;67223;51.102;5.882;2024-02-26T05:00:29;98964.19;;;6.02;100.00
78016;BME280;67223;51.102;5.882;2024-02-26T05:02:55;98977.03;;;5.97;100.00
78016;BME280;67223;51.102;5.882;2024-02-26T05:05:20;98980.38;;;5.99;100.00
78016;BME280;67223;51.102;5.882;2024-02-26T05:07:45;98984.81;;;5.98;100.00
78016;BME280;67223;51.102;5.882;2024-02-26T05:10:11;98984.28;;;5.95;100.00
78016;BME280;67223;51.102;5.882;2024-02-26T05:12:36;98984.00;;;5.88;100.00
78016;BME280;67223;51.102;5.882;2024-02-26T05:15:02;98975.06;;;5.89;100.00
78016;BME280;67223;51.102;5.882;2024-02-26T05:17:28;98984.00;;;5.88;100.00
78016;BME280;67223;51.102;5.882;2024-02-26T05:19:54;98990.28;;;5.87;100.00
78016;BME280;67223;51.102;5.882;2024-02-26T05:22:19;98996.94;;;5.82;100.00
78016;BME280;67223;51.102;5.882;2024-02-26T05:24:44;98995.97;;;5.83;100.00
78016;BME280;67223;51.102;5.882;2024-02-26T05:27:10;98992.34;;;5.93;100.00
78016;BME280;67223;51.102;5.882;2024-02-26T05:29:35;99003.22;;;5.81;100.00
78016;BME280;67223;51.102;5.882;2024-02-26T05:32:01;99000.16;;;5.85;100.00
78016;BME280;67223;51.102;5.882;2024-02-26T05:34:26;99004.59;;;6.23;100.00
78016;BME280;67223;51.102;5.882;2024-02-26T05:36:52;99004.38;;;5.97;100.00
78016;BME280;67223;51.102;5.882;2024-02-26T05:39:17;99013.94;;;5.79;100.00
78016;BME280;67223;51.102;5.882;2024-02-26T05:41:44;99011.59;;;5.76;100.00
78016;BME280;67223;51.102;5.882;2024-02-26T05:44:11;99012.56;;;5.94;100.00
78016;BME280;67223;51.102;5.882;2024-02-26T05:46:36;99013.97;;;5.89;100.00
78016;BME280;67223;51.102;5.882;2024-02-26T05:49:02;99014.13;;;5.87;100.00
78016;BME280;67223;51.102;5.882;2024-02-26T05:51:28;98989.47;;;7.62;100.00
78016;BME280;67223;51.102;5.882;2024-02-26T05:53:53;98978.41;;;8.53;100.00
78016;BME280;67223;51.102;5.882;2024-02-26T05:56:20;98986.00;;;8.66;100.00
78016;BME280;67223;51.102;5.882;2024-02-26T05:58:45;99021.50;;;7.96;100.00
78016;BME280;67223;51.102;5.882;2024-02-26T06:01:11;99027.41;;;8.07;100.00
78016;BME280;67223;51.102;5.882;2024-02-26T06:03:36;99025.34;;;8.19;100.00
78016;BME280;67223;51.102;5.882;2024-02-26T06:06:01;99011.19;;;8.80;100.00
78016;BME280;67223;51.102;5.882;2024-02-26T06:08:27;99059.97;;;7.56;100.00
78016;BME280;67223;51.102;5.882;2024-02-26T06:10:52;99047.94;;;8.76;100.00
78016;BME280;67223;51.102;5.882;2024-02-26T06:13:17;99071.09;;;8.40;100.00
78016;BME280;67223;51.102;5.882;2024-02-26T06:15:43;99078.38;;;9.07;100.00
78016;BME280;67223;51.102;5.882;2024-02-26T06:18:08;99087.63;;;9.21;100.00
78016;BME280;67223;51.102;5.882;2024-02-26T06:20:34;99131.69;;;8.01;100.00
78016;BME280;67223;51.102;5.882;2024-02-26T06:22:59;99130.84;;;8.46;100.00
78016;BME280;67223;51.102;5.882;2024-02-26T06:25:24;99131.72;;;8.54;100.00
78016;BME280;67223;51.102;5.882;2024-02-26T06:27:51;99154.09;;;8.61;100.00
78016;BME280;67223;51.102;5.882;2024-02-26T06:30:16;99164.34;;;8.56;100.00
78016;BME280;67223;51.102;5.882;2024-02-26T06:32:41;99184.16;;;8.27;100.00
78016;BME280;67223;51.102;5.882;2024-02-26T06:35:07;99159.19;;;9.92;100.00
78016;BME280;67223;51.102;5.882;2024-02-26T06:37:35;99177.44;;;8.93;100.00
78016;BME280;67223;51.102;5.882;2024-02-26T06:40:01;99209.53;;;7.66;100.00
78016;BME280;67223;51.102;5.882;2024-02-26T06:42:34;99178.78;;;8.72;100.00
78016;BME280;67223;51.102;5.882;2024-02-26T06:44:59;99206.06;;;8.38;100.00
78016;BME280;67223;51.102;5.882;2024-02-26T06:47:25;99221.38;;;7.62;100.00
78016;BME280;67223;51.102;5.882;2024-02-26T06:49:51;99221.56;;;7.88;100.00
78016;BME280;67223;51.102;5.882;2024-02-26T06:52:16;99206.66;;;8.68;100.00
78016;BME280;67223;51.102;5.882;2024-02-26T06:54:41;99230.13;;;9.07;100.00
78016;BME280;67223;51.102;5.882;2024-02-26T06:57:07;99227.00;;;9.12;100.00
78016;BME280;67223;51.102;5.882;2024-02-26T06:59:32;99236.81;;;9.29;100.00
78016;BME280;67223;51.102;5.882;2024-02-26T07:01:58;99257.59;;;9.08;100.00
78016;BME280;67223;51.102;5.882;2024-02-26T07:04:23;99259.56;;;10.01;100.00
78016;BME280;67223;51.102;5.882;2024-02-26T07:06:48;99291.56;;;9.06;100.00
78016;BME280;67223;51.102;5.882;2024-02-26T07:09:14;99277.38;;;9.41;100.00
78016;BME280;67223;51.102;5.882;2024-02-26T07:11:39;99282.50;;;8.99;100.00
78016;BME280;67223;51.102;5.882;2024-02-26T07:14:09;99299.41;;;8.62;100.00
78016;BME280;67223;51.102;5.882;2024-02-26T07:16:34;99276.06;;;9.71;100.00
78016;BME280;67223;51.102;5.882;2024-02-26T07:19:00;99310.06;;;8.62;100.00
78016;BME280;67223;51.102;5.882;2024-02-26T07:21:25;99296.34;;;9.20;100.00
78016;BME280;67223;51.102;5.882;2024-02-26T07:23:50;99297.66;;;9.16;100.00
78016;BME280;67223;51.102;5.882;2024-02-26T07:26:16;99314.59;;;8.97;100.00
78016;BME280;67223;51.102;5.882;2024-02-26T07:28:43;99304.72;;;8.90;100.00
78016;BME280;67223;51.102;5.882;2024-02-26T07:31:09;99299.34;;;9.43;100.00
78016;BME280;67223;51.102;5.882;2024-02-26T07:33:34;99323.97;;;9.63;100.00
78016;BME280;67223;51.102;5.882;2024-02-26T07:35:59;99304.53;;;10.64;100.00
78016;BME280;67223;51.102;5.882;2024-02-26T07:38:25;99345.47;;;9.87;100.00
78016;BME280;67223;51.102;5.882;2024-02-26T07:40:50;99351.69;;;10.21;100.00
78016;BME280;67223;51.102;5.882;2024-02-26T07:43:15;99365.16;;;9.68;100.00
78016;BME280;67223;51.102;5.882;2024-02-26T07:45:41;99361.97;;;9.47;100.00
78016;BME280;67223;51.102;5.882;2024-02-26T07:48:07;99372.56;;;8.86;100.00
78016;BME280;67223;51.102;5.882;2024-02-26T07:50:32;99373.03;;;9.52;100.00
78016;BME280;67223;51.102;5.882;2024-02-26T07:52:57;99382.22;;;8.59;100.00
78016;BME280;67223;51.102;5.882;2024-02-26T07:55:23;99378.28;;;8.17;100.00
78016;BME280;67223;51.102;5.882;2024-02-26T07:57:49;99375.34;;;8.67;100.00
78016;BME280;67223;51.102;5.882;2024-02-26T08:00:14;99373.75;;;8.46;100.00
78016;BME280;67223;51.102;5.882;2024-02-26T08:02:42;99372.41;;;9.23;100.00
78016;BME280;67223;51.102;5.882;2024-02-26T08:05:08;99382.25;;;8.77;100.00
78016;BME280;67223;51.102;5.882;2024-02-26T08:07:34;99368.34;;;8.19;100.00
78016;BME280;67223;51.102;5.882;2024-02-26T08:09:59;99379.16;;;8.54;100.00
78016;BME280;67223;51.102;5.882;2024-02-26T08:12:24;99375.84;;;9.15;100.00
78016;BME280;67223;51.102;5.882;2024-02-26T08:14:50;99400.97;;;9.30;100.00
78016;BME280;67223;51.102;5.882;2024-02-26T08:17:16;99401.44;;;8.53;100.00
78016;BME280;67223;51.102;5.882;2024-02-26T08:19:41;99392.56;;;9.07;100.00
78016;BME280;67223;51.102;5.882;2024-02-26T08:22:07;99402.13;;;7.99;100.00
78016;BME280;67223;51.102;5.882;2024-02-26T08:24:32;99390.56;;;8.28;100.00
78016;BME280;67223;51.102;5.882;2024-02-26T08:26:58;99374.94;;;9.06;100.00
78016;BME280;67223;51.102;5.882;2024-02-26T08:29:23;99421.66;;;9.01;100.00
78016;BME280;67223;51.102;5.882;2024-02-26T08:31:48;99416.59;;;9.61;100.00
78016;BME280;67223;51.102;5.882;2024-02-26T08:34:14;99402.09;;;9.10;100.00
78016;BME280;67223;51.102;5.882;2024-02-26T08:36:39;99421.03;;;9.07;100.00
78016;BME280;67223;51.102;5.882;2024-02-26T08:39:04;99437.41;;;8.57;100.00
78016;BME280;67223;51.102;5.882;2024-02-26T08:41:30;99423.50;;;8.63;100.00
78016;BME280;67223;51.102;5.882;2024-02-26T08:43:56;99410.56;;;8.51;100.00
78016;BME280;67223;51.102;5.882;2024-02-26T08:46:23;99433.28;;;9.00;100.00
78016;BME280;67223;51.102;5.882;2024-02-26T08:48:48;99416.47;;;9.17;100.00
78016;BME280;67223;51.102;5.882;2024-02-26T08:51:14;99449.09;;;8.37;100.00
78016;BME280;67223;51.102;5.882;2024-02-26T08:53:40;99440.97;;;8.29;100.00
78016;BME280;67223;51.102;5.882;2024-02-26T08:56:05;99407.34;;;9.37;100.00
78016;BME280;67223;51.102;5.882;2024-02-26T08:58:31;99426.50;;;9.50;100.00
78016;BME280;67223;51.102;5.882;2024-02-26T09:00:56;99433.22;;;9.27;100.00
78016;BME280;67223;51.102;5.882;2024-02-26T09:03:22;99455.06;;;8.86;100.00
78016;BME280;67223;51.102;5.882;2024-02-26T09:05:48;99461.56;;;8.74;100.00
78016;BME280;67223;51.102;5.882;2024-02-26T09:08:14;99472.59;;;8.79;100.00
78016;BME280;67223;51.102;5.882;2024-02-26T09:10:39;99463.06;;;8.49;100.00
78016;BME280;67223;51.102;5.882;2024-02-26T09:13:05;99454.94;;;8.50;100.00
78016;BME280;67223;51.102;5.882;2024-02-26T09:15:30;99471.16;;;8.57;100.00
78016;BME280;67223;51.102;5.882;2024-02-26T09:17:56;99466.63;;;7.82;100.00
78016;BME280;67223;51.102;5.882;2024-02-26T09:20:22;99457.00;;;8.93;100.00
78016;BME280;67223;51.102;5.882;2024-02-26T09:22:48;99457.16;;;9.55;100.00
78016;BME280;67223;51.102;5.882;2024-02-26T09:25:14;99463.25;;;9.47;100.00
78016;BME280;67223;51.102;5.882;2024-02-26T09:27:41;99474.09;;;10.07;100.00
78016;BME280;67223;51.102;5.882;2024-02-26T09:30:08;99483.97;;;9.53;100.00
78016;BME280;67223;51.102;5.882;2024-02-26T09:32:33;99511.28;;;9.10;100.00
78016;BME280;67223;51.102;5.882;2024-02-26T09:34:58;99494.88;;;9.32;100.00
78016;BME280;67223;51.102;5.882;2024-02-26T09:37:24;99491.72;;;9.01;100.00
78016;BME280;67223;51.102;5.882;2024-02-26T09:39:49;99490.00;;;9.10;100.00
78016;BME280;67223;51.102;5.882;2024-02-26T09:42:17;99503.78;;;8.59;100.00
78016;BME280;67223;51.102;5.882;2024-02-26T09:44:43;99508.75;;;8.81;100.00
78016;BME280;67223;51.102;5.882;2024-02-26T09:47:10;99524.97;;;8.12;100.00
78016;BME280;67223;51.102;5.882;2024-02-26T09:49:36;99513.47;;;8.50;100.00
78016;BME280;67223;51.102;5.882;2024-02-26T09:52:04;99487.91;;;10.02;100.00
78016;BME280;67223;51.102;5.882;2024-02-26T09:54:30;99517.69;;;8.43;100.00
78016;BME280;67223;51.102;5.882;2024-02-26T09:56:59;99527.06;;;8.28;100.00
78016;BME280;67223;51.102;5.882;2024-02-26T09:59:26;99531.31;;;9.14;100.00
78016;BME280;67223;51.102;5.882;2024-02-26T10:01:53;99534.00;;;8.68;100.00
78016;BME280;67223;51.102;5.882;2024-02-26T10:04:19;99539.09;;;8.32;100.00
78016;BME280;67223;51.102;5.882;2024-02-26T10:06:46;99541.03;;;7.72;100.00
78016;BME280;67223;51.102;5.882;2024-02-26T10:09:12;99527.47;;;9.26;100.00
78016;BME280;67223;51.102;5.882;2024-02-26T10:11:38;99529.19;;;9.18;100.00
78016;BME280;67223;51.102;5.882;2024-02-26T10:14:04;99527.19;;;9.47;100.00
78016;BME280;67223;51.102;5.882;2024-02-26T10:16:30;99554.50;;;9.31;100.00
78016;BME280;67223;51.102;5.882;2024-02-26T10:18:56;99561.88;;;8.63;100.00
78016;BME280;67223;51.102;5.882;2024-02-26T10:21:22;99564.34;;;9.48;100.00
78016;BME280;67223;51.102;5.882;2024-02-26T10:23:48;99579.16;;;9.06;100.00
78016;BME280;67223;51.102;5.882;2024-02-26T10:26:14;99583.00;;;9.21;100.00
78016;BME280;67223;51.102;5.882;2024-02-26T10:28:44;99578.53;;;9.12;100.00
78016;BME280;67223;51.102;5.882;2024-02-26T10:31:11;99584.34;;;9.35;100.00
78016;BME280;67223;51.102;5.882;2024-02-26T10:33:37;99572.09;;;9.42;100.00
78016;BME280;67223;51.102;5.882;2024-02-26T10:36:07;99575.00;;;10.11;100.00
78016;BME280;67223;51.102;5.882;2024-02-26T10:38:36;99597.19;;;10.12;100.00
78016;BME280;67223;51.102;5.882;2024-02-26T10:41:23;99612.81;;;8.88;100.00
78016;BME280;67223;51.102;5.882;2024-02-26T10:43:48;99609.81;;;8.44;100.00
78016;BME280;67223;51.102;5.882;2024-02-26T10:46:14;99602.50;;;8.75;100.00
78016;BME280;67223;51.102;5.882;2024-02-26T10:48:39;99601.41;;;9.15;100.00
78016;BME280;67223;51.102;5.882;2024-02-26T10:51:05;99623.38;;;8.70;100.00
78016;BME280;67223;51.102;5.882;2024-02-26T10:53:31;99594.97;;;9.07;100.00
78016;BME280;67223;51.102;5.882;2024-02-26T10:56:01;99614.28;;;9.19;100.00
78016;BME280;67223;51.102;5.882;2024-02-26T10:58:27;99635.34;;;9.03;100.00
78016;BME280;67223;51.102;5.882;2024-02-26T11:00:56;99628.16;;;9.13;100.00
78016;BME280;67223;51.102;5.882;2024-02-26T11:03:22;99628.41;;;8.15;100.00
78016;BME280;67223;51.102;5.882;2024-02-26T11:05:48;99627.44;;;8.64;100.00
78016;BME280;67223;51.102;5.882;2024-02-26T11:08:16;99621.47;;;8.99;100.00
78016;BME280;67223;51.102;5.882;2024-02-26T11:10:43;99620.38;;;9.39;100.00
78016;BME280;67223;51.102;5.882;2024-02-26T11:13:12;99624.69;;;9.03;100.00
78016;BME280;67223;51.102;5.882;2024-02-26T11:15:39;99634.19;;;8.40;100.00
78016;BME280;67223;51.102;5.882;2024-02-26T11:18:05;99638.63;;;8.10;100.00
78016;BME280;67223;51.102;5.882;2024-02-26T11:20:32;99620.13;;;8.28;100.00
78016;BME280;67223;51.102;5.882;2024-02-26T11:22:58;99640.03;;;7.55;100.00
78016;BME280;67223;51.102;5.882;2024-02-26T11:25:24;99623.16;;;7.75;100.00
78016;BME280;67223;51.102;5.882;2024-02-26T11:27:55;99606.16;;;8.26;100.00
78016;BME280;67223;51.102;5.882;2024-02-26T11:30:26;99620.03;;;8.39;100.00
78016;BME280;67223;51.102;5.882;2024-02-26T11:32:54;99611.22;;;9.14;100.00
78016;BME280;67223;51.102;5.882;2024-02-26T11:35:20;99623.78;;;9.86;100.00
78016;BME280;67223;51.102;5.882;2024-02-26T11:37:53;99632.44;;;9.88;100.00
78016;BME280;67223;51.102;5.882;2024-02-26T11:40:19;99656.25;;;9.72;100.00
78016;BME280;67223;51.102;5.882;2024-02-26T11:42:44;99668.41;;;9.84;100.00
78016;BME280;67223;51.102;5.882;2024-02-26T11:48:15;99669.19;;;9.94;100.00
78016;BME280;67223;51.102;5.882;2024-02-26T11:50:51;99700.38;;;9.10;100.00
78016;BME280;67223;51.102;5.882;2024-02-26T11:53:20;99677.16;;;9.39;100.00
78016;BME280;67223;51.102;5.882;2024-02-26T11:55:46;99682.88;;;10.36;100.00
78016;BME280;67223;51.102;5.882;2024-02-26T11:58:11;99707.16;;;9.41;100.00
78016;BME280;67223;51.102;5.882;2024-02-26T12:00:36;99692.25;;;8.83;100.00
78016;BME280;67223;51.102;5.882;2024-02-26T12:03:04;99697.34;;;8.67;100.00
78016;BME280;67223;51.102;5.882;2024-02-26T12:05:34;99698.03;;;8.59;100.00
78016;BME280;67223;51.102;5.882;2024-02-26T12:08:02;99681.28;;;9.24;100.00
78016;BME280;67223;51.102;5.882;2024-02-26T12:10:35;99670.13;;;8.92;100.00
78016;BME280;67223;51.102;5.882;2024-02-26T12:13:15;99699.72;;;8.41;100.00
78016;BME280;67223;51.102;5.882;2024-02-26T12:15:59;99692.34;;;8.04;100.00
78016;BME280;67223;51.102;5.882;2024-02-26T12:18:24;99683.47;;;8.53;100.00
78016;BME280;67223;51.102;5.882;2024-02-26T12:21:03;99696.88;;;8.33;100.00
78016;BME280;67223;51.102;5.882;2024-02-26T12:23:29;99686.94;;;9.48;100.00
78016;BME280;67223;51.102;5.882;2024-02-26T12:26:01;99721.94;;;9.17;100.00
78016;BME280;67223;51.102;5.882;2024-02-26T12:28:30;99733.59;;;9.16;100.00
78016;BME280;67223;51.102;5.882;2024-02-26T12:30:56;99715.94;;;9.05;100.00
78016;BME280;67223;51.102;5.882;2024-02-26T12:33:25;99737.81;;;8.60;100.00
78016;BME280;67223;51.102;5.882;2024-02-26T12:35:51;99723.63;;;10.01;100.00
78016;BME280;67223;51.102;5.882;2024-02-26T12:38:17;99735.88;;;10.84;100.00
78016;BME280;67223;51.102;5.882;2024-02-26T12:40:42;99759.28;;;10.27;100.00
78016;BME280;67223;51.102;5.882;2024-02-26T12:43:08;99772.09;;;11.22;100.00
78016;BME280;67223;51.102;5.882;2024-02-26T12:45:40;99798.09;;;11.55;100.00
78016;BME280;67223;51.102;5.882;2024-02-26T12:48:08;99820.47;;;10.66;100.00
78016;BME280;67223;51.102;5.882;2024-02-26T12:50:34;99817.56;;;10.59;100.00
78016;BME280;67223;51.102;5.882;2024-02-26T12:52:59;99825.38;;;10.16;100.00
78016;BME280;67223;51.102;5.882;2024-02-26T12:55:25;99828.81;;;10.53;100.00
78016;BME280;67223;51.102;5.882;2024-02-26T12:57:52;99825.44;;;10.96;100.00
78016;BME280;67223;51.102;5.882;2024-02-26T13:00:21;99841.53;;;10.05;100.00